x

Port Orford - 15 Nm West Of Port Orford, Or (46015) Wave Buoy

6:50am - Sat 20th Dec 2014 All times are PST. -8 hours from GMT.

  • Sig Wave height 20.3ft
  • Swell Direction
  • Peak Period 14s
  • Average Period 9s
  • Wind
    36mph, 43mph gusts
  • Sea Temp 58°f
  • Air Temp 55°f
  • Sea Pressure 1009.1mb
  • Port Orford - 15 Nm West Of Port Orford, Or
  • Port Orford - 15 Nm West Of Port Orford, Or

More Historic Weather Station data

Upgrade to MSW Pro to gain access to the past 30 days of data for over 8000 Wavebouys and Weather Stations around the globe.

Join Pro

Comparision Forecast

View Surf forecast
   
Sat 12/20 6:50am 20.5ft 14s 9s 36 43 mph 1009.1mb 58f 55f
5:50am 19.5ft 17s 9s 36 43 mph 1009.3mb 58f 55f
4:50am 19.5ft 16s 9s 34 40 mph 1010.2mb 58f 55f
3:50am 19.5ft 17s 9s 31 40 mph 1011.2mb 58f 56f
2:50am 18.5ft 16s 9s 34 40 mph 1011.6mb 58f 56f
1:50am 21.5ft 17s 10s 29 36 mph 1012.4mb 57f 56f
12:50am 18.5ft 17s 9s 31 36 mph 1012.7mb 57f 56f
Fri 12/19 11:50pm 21.5ft 17s 10s 27 31 mph 1012.8mb 58f 55f
10:50pm 19ft 17s 10s 31 38 mph 1013.2mb 58f 56f
9:50pm 18.5ft 19s 10s 29 36 mph 1013mb 58f 55f
8:50pm 16ft 17s 10s 29 34 mph 1014.3mb 58f 55f
7:50pm 16.5ft 17s 10s 25 29 mph 1015.3mb 58f 56f
6:50pm 15.5ft 17s 9s 25 29 mph 1015.1mb 58f 57f
5:50pm 15.5ft 19s 9s 27 31 mph 1014.3mb 58f 56f
4:50pm 17.5ft 19s 10s 25 29 mph 1015.4mb 58f 56f
3:50pm 17.5ft 19s 10s 22 27 mph 1016.4mb 58f 56f
2:50pm 16ft 19s 10s 22 27 mph 1015.8mb 58f 56f
1:50pm 16ft 19s 10s 22 27 mph 1016mb 58f 56f
12:50pm 16.5ft 19s 10s 18 22 mph 1016.8mb 58f 56f
11:50am 15ft 19s 10s 18 20 mph 1016.8mb 58f 56f
10:50am 14.5ft 19s 9s 18 22 mph 1016.9mb 58f 56f
9:50am 13ft 11s 9s 18 20 mph 1016.4mb 58f 56f
8:50am 13ft 12s 9s 16 20 mph 1015.8mb 58f 55f
7:50am 13.5ft 11s 9s 18 20 mph 1015.4mb 58f 55f
6:50am 13ft 11s 8s 18 20 mph 1015mb 58f 55f
5:50am 11ft 12s 8s 16 20 mph 1014.6mb 58f 54f
4:50am 9.5ft 12s 7s 16 20 mph 1014.3mb 58f 53f
3:50am 10ft 12s 8s 20 29 mph 1014.3mb 58f 50f
2:50am 10ft 11s 7s 20 25 mph 1013.8mb 58f 55f
1:50am 10ft 8s 7s 20 25 mph 1013.5mb 58f 56f
12:50am 11ft 8s 7s 20 22 mph 1013.4mb 58f 55f
Thu 12/18 11:50pm 12ft 13s 8s 22 25 mph 1013.6mb 58f 55f
10:50pm 12ft 8s 7s 18 22 mph 1013.2mb 58f 55f
9:50pm 13ft 8s 7s 20 22 mph 1012.7mb 58f 53f
8:50pm 13ft 9s 7s 18 25 mph 1012.2mb 58f 53f
7:50pm 15.5ft 8s 7s 18 22 mph 1011.3mb 58f 52f
6:50pm 15.5ft 8s 7s 38 47 mph 1009.4mb 58f 56f
5:50pm 15ft 8s 7s 43 54 mph 1008.8mb 58f 55f
4:50pm 14.5ft 8s 7s 40 49 mph 1009.2mb 58f 55f
3:50pm 14ft 8s 6s 38 49 mph 1010.2mb 58f 55f
2:50pm 13ft 7s 6s 38 47 mph 1010.6mb 58f 56f
1:50pm 13ft 7s 6s 36 47 mph 1011.1mb 58f 58f
12:50pm 12ft 6s 6s 36 45 mph 1011.5mb 58f 56f
11:50am 12ft 14s 7s 34 43 mph 1012.5mb 58f 57f
10:50am 11ft 7s 6s 29 38 mph 1013.7mb 57f 56f
9:50am 12ft 12s 7s 29 36 mph 1013.8mb 57f 56f
8:50am 13ft 11s 7s 31 38 mph 1013.2mb 57f 57f
7:50am 13ft 13s 7s 34 40 mph 1012.9mb 57f 56f
6:50am 13.5ft 12s 7s 31 38 mph 1012.9mb 57f 55f
5:50am 12.5ft 13s 7s 31 38 mph 1012.7mb 57f 55f
4:50am 12ft 14s 7s 34 38 mph 1012.3mb 57f 54f
3:50am 12ft 14s 7s 29 36 mph 1012.7mb 58f 56f
2:50am 11ft 15s 7s 29 36 mph 1013mb 58f 56f
1:50am 12ft 14s 7s 25 31 mph 1013.1mb 58f 54f
12:50am  -   -   -  27 31 mph 1013mb 58f 54f
Wed 12/17 11:50pm 11ft 14s 7s 25 34 mph 1013.5mb 57f 53f
10:50pm 11ft 14s 8s 22 29 mph 1013.6mb 58f 54f
9:50pm 10.5ft 14s 7s 18 25 mph 1013.7mb 58f 53f
8:50pm 10.5ft 14s 7s 18 25 mph 1013.6mb 58f 54f
7:50pm 11ft 15s 8s 20 27 mph 1013.6mb 58f 54f
6:50pm 10.5ft 15s 8s 22 27 mph 1013.2mb 58f 53f
5:50pm 11ft 13s 8s 18 22 mph 1013.2mb 58f 53f
4:50pm 11.5ft 14s 8s 20 25 mph 1013mb 58f 53f
3:50pm 11ft 14s 8s 20 25 mph 1012.8mb 58f 53f
2:50pm 10.5ft 15s 8s 20 25 mph 1012.3mb 58f 53f
1:50pm 11ft 15s 8s 18 25 mph 1012.3mb 58f 51f
12:50pm 12ft 13s 8s 18 22 mph 1012.5mb 58f 52f
11:50am 13ft 14s 8s 20 25 mph 1012.6mb 58f 54f
10:50am 11ft 15s 8s 25 29 mph 1012.2mb 58f 54f
9:50am 12ft 12s 8s 22 25 mph 1011.3mb 58f 55f
8:50am 10ft 12s 7s 22 25 mph 1009.7mb 58f 54f
7:50am 10.5ft 12s 8s 20 25 mph 1008.9mb 58f 54f
6:50am 10ft 11s 8s 18 25 mph 1008.5mb 58f 53f
5:50am 10ft 11s 8s 7 9 mph 1007.5mb 58f 53f
4:50am 10ft 8s 8s 4 7 mph 1007.7mb 58f 53f
3:50am 10ft 10s 8s 4 7 mph 1007.4mb 58f 55f
2:50am 10ft 11s 8s 9 11 mph 1007.1mb 58f 56f
1:50am 11ft 12s 8s 4 11 mph 1006.9mb 58f 56f
12:50am 10ft 13s 8s 2 7 mph 1006.9mb 58f 56f
Tue 12/16 11:50pm 9.5ft 11s 8s 7 11 mph 1006.5mb 58f 56f
10:50pm 9ft 12s 8s 7 11 mph 1006.4mb 58f 55f
9:50pm 9.5ft 8s 7s 9 11 mph 1005.8mb 58f 56f
8:50pm 9.5ft 9s 7s 7 11 mph 1005.7mb 58f 57f
7:50pm 10ft 12s 7s 7 9 mph 1005.3mb 58f 56f
6:50pm 11ft 9s 7s 18 22 mph 1005mb 58f 56f
5:50pm 12.5ft 8s 7s 16 20 mph 1004.1mb 58f 56f
4:50pm 12ft 14s 7s 25 31 mph 1003.5mb 58f 56f